HornbrookRWIS Atmospheric Data: 05/15/2019 Summary  Detailed Graphs  Station List

  Temperature     Wind Precipitation Visibility
Timestamp Air Wet
Bulb
Dew-
point
24-hr
Max
24-hr
Min
Relative
Humidity
Atmospheric
Pressure
Avg
Speed
Avg
Dir
Spot
Speed
Spot
Dir
Max
Speed
Max
Dir
  Rate Situation Start End 1 hr 3 hr 6 hr 12 hr 24 hr   Situation
Date Time °F °F °F °F °F % in Hg mph ° mph ° mph ° Y/N in/hr text Date Time Date Time in in in in in mi text
05/15/2019 12:12 AM 55.76 50.72 46.40 86.18 46.94 70.0 Not Reported 1.79 W 3.58 W 6.26 NW No 0.000 No Precipitation 04/20/2019 08:35 AM 04/20/2019 08:45 AM 0.000 0.000 0.000 0.000 0.000 Not Reported Not Reported
05/15/2019 12:27 AM 55.76 50.72 46.22 86.18 46.94 70.0 Not Reported 3.58 W 4.47 NW 4.47 S No 0.000 No Precipitation 04/20/2019 08:35 AM 04/20/2019 08:45 AM 0.000 0.000 0.000 0.000 0.000 Not Reported Not Reported
05/15/2019 12:42 AM 55.76 50.72 46.22 86.18 46.94 70.0 Not Reported 4.92 W 4.03 NW 5.37 W No 0.000 No Precipitation 04/20/2019 08:35 AM 04/20/2019 08:45 AM 0.000 0.000 0.000 0.000 0.000 Not Reported Not Reported
05/15/2019 12:57 AM 55.58 50.54 46.40 86.18 46.94 70.0 Not Reported 3.36 W 3.80 W 5.59 NW No 0.000 No Precipitation 04/20/2019 08:35 AM 04/20/2019 08:45 AM 0.000 0.000 0.000 0.000 0.000 Not Reported Not Reported
05/15/2019 01:12 AM 55.76 50.54 46.40 64.58 51.80 70.0 Not Reported 0.89 SW 0.00 SW 4.47 W No 0.000 No Precipitation 04/20/2019 08:35 AM 04/20/2019 08:45 AM 0.000 0.000 0.000 0.000 0.000 Not Reported Not Reported
05/15/2019 01:27 AM 54.50 50.36 46.76 64.58 51.80 74.0 Not Reported 0.45 NE 0.00 NE 3.80 E No 0.000 No Precipitation 04/20/2019 08:35 AM 04/20/2019 08:45 AM 0.000 0.000 0.000 0.000 0.000 Not Reported Not Reported
05/15/2019 01:42 AM 54.86 50.36 46.58 64.58 51.80 73.0 Not Reported 2.01 W 1.79 W 2.46 NW No 0.000 No Precipitation 04/20/2019 08:35 AM 04/20/2019 08:45 AM 0.000 0.000 0.000 0.000 0.000 Not Reported Not Reported
05/15/2019 01:57 AM 54.86 50.36 46.58 64.58 51.80 73.0 Not Reported 0.89 W 1.34 W 4.25 NW No 0.000 No Precipitation 04/20/2019 08:35 AM 04/20/2019 08:45 AM 0.000 0.000 0.000 0.000 0.000 Not Reported Not Reported
05/15/2019 02:12 AM 54.14 50.00 46.40 64.58 51.80 75.0 Not Reported 2.91 N 3.13 NW 2.01 N No 0.000 No Precipitation 04/20/2019 08:35 AM 04/20/2019 08:45 AM 0.000 0.000 0.000 0.000 0.000 Not Reported Not Reported
05/15/2019 02:27 AM 54.68 50.36 46.76 64.58 51.80 74.0 Not Reported 2.46 NW 1.12 NW 6.26 N No 0.000 No Precipitation 04/20/2019 08:35 AM 04/20/2019 08:45 AM 0.000 0.000 0.000 0.000 0.000 Not Reported Not Reported
05/15/2019 02:42 AM 54.32 50.36 46.76 64.58 51.80 75.0 Not Reported 1.57 SW 2.46 SW 1.79 S No 0.000 No Precipitation 04/20/2019 08:35 AM 04/20/2019 08:45 AM 0.000 0.000 0.000 0.000 0.000 Not Reported Not Reported
05/15/2019 02:57 AM 54.68 50.36 46.58 64.58 51.80 74.0 Not Reported 1.12 SW 0.45 W 2.91 W No 0.000 No Precipitation 04/20/2019 08:35 AM 04/20/2019 08:45 AM 0.000 0.000 0.000 0.000 0.000 Not Reported Not Reported
05/15/2019 03:12 AM 54.14 50.18 46.76 64.58 51.80 75.0 Not Reported 2.91 W 2.91 W 3.36 W No 0.000 No Precipitation 04/20/2019 08:35 AM 04/20/2019 08:45 AM 0.000 0.000 0.000 0.000 0.000 Not Reported Not Reported
05/15/2019 03:27 AM 54.50 50.18 46.58 64.58 51.80 75.0 Not Reported 2.24 W 1.57 W 3.58 W No 0.000 No Precipitation 04/20/2019 08:35 AM 04/20/2019 08:45 AM 0.000 0.000 0.000 0.000 0.000 Not Reported Not Reported
05/15/2019 03:42 AM 53.24 50.00 47.30 64.58 51.80 79.0 Not Reported 2.24 N 1.57 N 2.68 N No 0.000 No Precipitation 04/20/2019 08:35 AM 04/20/2019 08:45 AM 0.000 0.000 0.000 0.000 0.000 Not Reported Not Reported
05/15/2019 03:57 AM 53.96 50.18 47.12 64.58 51.80 77.0 Not Reported 0.67 W 0.00 NW 2.46 N No 0.000 No Precipitation 04/20/2019 08:35 AM 04/20/2019 08:45 AM 0.000 0.000 0.000 0.000 0.000 Not Reported Not Reported
05/15/2019 04:12 AM 53.78 50.18 47.12 64.58 51.80 78.0 Not Reported 1.34 W 1.34 SW 3.36 S No 0.000 No Precipitation 04/20/2019 08:35 AM 04/20/2019 08:45 AM 0.000 0.000 0.000 0.000 0.000 Not Reported Not Reported
05/15/2019 04:27 AM 53.96 50.36 47.30 64.58 51.80 78.0 Not Reported 0.67 W 1.79 W 5.82 W No 0.000 No Precipitation 04/20/2019 08:35 AM 04/20/2019 08:45 AM 0.000 0.000 0.000 0.000 0.000 Not Reported Not Reported
05/15/2019 04:42 AM 52.88 50.00 47.66 64.58 51.80 82.0 Not Reported 3.36 N 3.80 N 3.58 N No 0.000 No Precipitation 04/20/2019 08:35 AM 04/20/2019 08:45 AM 0.000 0.000 0.000 0.000 0.000 Not Reported Not Reported
05/15/2019 04:57 AM 53.06 50.18 47.66 64.58 51.80 81.0 Not Reported 1.34 N 2.24 N 3.80 N No 0.000 No Precipitation 04/20/2019 08:35 AM 04/20/2019 08:45 AM 0.000 0.000 0.000 0.000 0.000 Not Reported Not Reported
05/15/2019 05:12 AM 53.06 50.00 47.48 64.58 51.80 81.0 Not Reported 2.24 W 1.57 W 3.58 NW No 0.000 No Precipitation 04/20/2019 08:35 AM 04/20/2019 08:45 AM 0.000 0.000 0.000 0.000 0.000 Not Reported Not Reported
05/15/2019 05:27 AM 52.52 49.82 47.66 64.58 51.80 83.0 Not Reported 2.46 E 1.12 E 2.24 W No 0.000 No Precipitation 04/20/2019 08:35 AM 04/20/2019 08:45 AM 0.000 0.000 0.000 0.000 0.000 Not Reported Not Reported
05/15/2019 05:42 AM 53.06 50.36 48.02 64.58 51.80 83.0 Not Reported 0.45 SW 0.00 W 2.01 SW No 0.000 No Precipitation 04/20/2019 08:35 AM 04/20/2019 08:45 AM 0.000 0.000 0.000 0.000 0.000 Not Reported Not Reported
05/15/2019 05:59 AM 53.24 50.36 48.02 64.58 51.80 82.0 Not Reported 2.46 NW 2.46 NW 2.01 NW No 0.000 No Precipitation 04/20/2019 08:35 AM 04/20/2019 08:45 AM 0.000 0.000 0.000 0.000 0.000 Not Reported Not Reported
05/15/2019 06:12 AM 53.06 50.18 47.66 64.58 51.80 81.0 Not Reported 2.46 NW 2.46 NW 4.70 NW No 0.000 No Precipitation 04/20/2019 08:35 AM 04/20/2019 08:45 AM 0.000 0.000 0.000 0.000 0.000 Not Reported Not Reported
05/15/2019 06:27 AM 52.88 50.18 47.84 64.58 51.80 83.0 Not Reported 0.89 N 1.34 N 2.68 NW No 0.000 No Precipitation 04/20/2019 08:35 AM 04/20/2019 08:45 AM 0.000 0.000 0.000 0.000 0.000 Not Reported Not Reported
05/15/2019 06:42 AM 52.88 50.18 48.02 64.58 51.80 83.0 Not Reported 0.89 SW 1.12 SW 2.68 W No 0.000 No Precipitation 04/20/2019 08:35 AM 04/20/2019 08:45 AM 0.000 0.000 0.000 0.000 0.000 Not Reported Not Reported
05/15/2019 06:57 AM 53.06 50.36 48.20 64.58 51.80 83.0 Not Reported 1.57 SW 0.00 W 2.24 NW No 0.000 No Precipitation 04/20/2019 08:35 AM 04/20/2019 08:45 AM 0.000 0.000 0.000 0.000 0.000 Not Reported Not Reported
05/15/2019 07:12 AM 52.16 50.00 48.02 64.58 51.80 85.0 Not Reported 1.57 E 1.57 E 1.34 E No 0.000 No Precipitation 04/20/2019 08:35 AM 04/20/2019 08:45 AM 0.000 0.000 0.000 0.000 0.000 Not Reported Not Reported
05/15/2019 07:27 AM 51.98 50.00 48.38 64.58 51.80 87.0 Not Reported 0.00 N 0.00 N 1.79 E No 0.000 No Precipitation 04/20/2019 08:35 AM 04/20/2019 08:45 AM 0.000 0.000 0.000 0.000 0.000 Not Reported Not Reported
05/15/2019 07:42 AM 52.70 50.72 49.28 64.58 51.80 88.0 Not Reported 0.89 NW 0.45 NW 1.12 W Yes 0.043 Rain Slight 05/14/2019 11:39 PM   0.004 0.004 0.004 0.004 0.004 Not Reported Not Reported
05/15/2019 07:57 AM 52.52 50.72 49.10 64.58 51.80 88.0 Not Reported 1.79 NW 1.79 NW 1.79 NW No 0.000 No Precipitation 05/14/2019 11:39 PM 05/14/2019 11:44 PM 0.004 0.004 0.004 0.004 0.004 Not Reported Not Reported
05/15/2019 08:12 AM 52.70 50.72 49.28 64.58 51.80 87.0 Not Reported 0.67 NW 0.45 N 3.80 NW No 0.000 No Precipitation 05/15/2019 12:04 AM 05/15/2019 12:09 AM 0.008 0.008 0.008 0.008 0.008 Not Reported Not Reported
05/15/2019 08:27 AM 52.88 50.72 49.10 64.58 51.80 87.0 Not Reported 1.57 W 1.34 W 2.68 N No 0.000 No Precipitation 05/15/2019 12:04 AM 05/15/2019 12:09 AM 0.008 0.008 0.008 0.008 0.008 Not Reported Not Reported
05/15/2019 08:42 AM 52.88 51.08 49.46 64.58 51.80 87.0 Not Reported 0.67 N 0.00 NE 2.24 N No 0.000 No Precipitation 05/15/2019 12:04 AM 05/15/2019 12:09 AM 0.004 0.008 0.008 0.008 0.008 Not Reported Not Reported
05/15/2019 08:57 AM 52.88 51.08 49.64 64.58 51.80 88.0 Not Reported 0.67 NW 0.00 N 2.68 N No 0.000 No Precipitation 05/15/2019 12:04 AM 05/15/2019 12:09 AM 0.004 0.008 0.008 0.008 0.008 Not Reported Not Reported
05/15/2019 09:12 AM 53.06 51.44 50.00 64.58 51.80 89.0 Not Reported 1.57 SE 0.89 S 2.01 S No 0.000 No Precipitation 05/15/2019 12:04 AM 05/15/2019 12:09 AM 0.000 0.008 0.008 0.008 0.008 Not Reported Not Reported
05/15/2019 09:27 AM 53.24 51.80 50.54 64.58 51.80 90.0 Not Reported 2.91 SE 2.24 S 1.79 SE No 0.000 No Precipitation 05/15/2019 01:21 AM 05/15/2019 01:26 AM 0.004 0.012 0.012 0.012 0.012 Not Reported Not Reported
05/15/2019 09:42 AM 53.60 52.16 51.08 64.58 51.80 91.0 Not Reported 2.01 S 1.34 SW 3.13 S Yes 0.043 Rain Slight 05/15/2019 01:39 AM   0.016 0.024 0.024 0.024 0.024 Not Reported Not Reported
05/15/2019 09:57 AM 53.60 51.62 50.00 64.58 51.80 87.0 Not Reported 2.68 W 2.68 W 2.24 SE No 0.000 No Precipitation 05/15/2019 01:51 AM 05/15/2019 01:56 AM 0.024 0.031 0.031 0.031 0.031 Not Reported Not Reported
05/15/2019 10:12 AM 53.78 51.98 50.54 64.58 51.80 88.0 Not Reported 1.57 E 0.67 E 2.46 S Yes 0.043 Rain Slight 05/15/2019 02:12 AM   0.031 0.039 0.039 0.039 0.039 Not Reported Not Reported
05/15/2019 10:27 AM 53.06 51.44 50.36 64.58 51.80 90.0 Not Reported 3.13 NE 2.46 E 1.79 NE Yes 0.043 Rain Slight 05/15/2019 02:18 AM   0.039 0.051 0.051 0.051 0.051 Not Reported Not Reported
05/15/2019 10:42 AM 53.06 51.80 50.72 64.58 51.80 91.0 Not Reported 0.67 SE 2.46 E 2.68 S No 0.000 No Precipitation 05/15/2019 02:18 AM 05/15/2019 02:32 AM 0.028 0.047 0.051 0.051 0.051 Not Reported Not Reported
05/15/2019 10:57 AM 53.42 51.98 50.72 64.58 51.80 90.0 Not Reported 1.57 NE 0.45 E 4.25 NW No 0.000 No Precipitation 05/15/2019 02:18 AM 05/15/2019 02:32 AM 0.020 0.047 0.051 0.051 0.051 Not Reported Not Reported
05/15/2019 11:12 AM 54.50 51.98 50.36 64.58 51.80 85.0 Not Reported 1.12 SW 2.46 SW 3.36 SE No 0.000 No Precipitation 05/15/2019 02:18 AM 05/15/2019 02:32 AM 0.016 0.043 0.051 0.051 0.051 Not Reported Not Reported
05/15/2019 11:27 AM 55.40 51.62 48.56 64.58 51.80 77.0 Not Reported 4.70 SE 2.91 SE 3.58 S No 0.000 No Precipitation 05/15/2019 02:18 AM 05/15/2019 02:32 AM 0.000 0.043 0.051 0.051 0.051 Not Reported Not Reported
05/15/2019 11:42 AM 56.66 50.72 45.50 64.58 51.80 66.0 Not Reported 7.61 S 7.16 S 10.96 SE No 0.000 No Precipitation 05/15/2019 02:18 AM 05/15/2019 02:32 AM 0.000 0.043 0.051 0.051 0.051 Not Reported Not Reported
05/15/2019 11:58 AM 57.02 50.54 44.78 64.58 51.80 63.0 Not Reported 11.63 S 10.96 S 14.54 S No 0.000 No Precipitation 05/15/2019 02:18 AM 05/15/2019 02:32 AM 0.000 0.043 0.051 0.051 0.051 Not Reported Not Reported
05/15/2019 12:12 PM 57.74 51.08 45.50 64.58 51.80 63.0 Not Reported 9.84 S 7.16 S 17.00 S No 0.000 No Precipitation 05/15/2019 02:18 AM 05/15/2019 02:32 AM 0.000 0.043 0.051 0.051 0.051 Not Reported Not Reported
05/15/2019 12:27 PM 59.90 52.88 47.12 64.58 51.80 62.0 Not Reported 6.49 SE 5.82 SE 12.75 S No 0.000 No Precipitation 05/15/2019 02:18 AM 05/15/2019 02:32 AM 0.000 0.039 0.051 0.051 0.051 Not Reported Not Reported
05/15/2019 12:42 PM 59.72 51.44 44.06 64.58 51.80 55.0 Not Reported 7.61 S 12.53 S 13.42 S No 0.000 No Precipitation 05/15/2019 02:18 AM 05/15/2019 02:32 AM 0.000 0.028 0.051 0.051 0.051 Not Reported Not Reported
05/15/2019 12:57 PM 60.80 52.88 45.50 64.58 51.80 59.0 Not Reported 10.29 SE 6.93 SE 13.20 S No 0.000 No Precipitation 05/15/2019 02:18 AM 05/15/2019 02:32 AM 0.000 0.020 0.051 0.051 0.051 Not Reported Not Reported
05/15/2019 01:12 PM 60.08 51.62 44.06 64.58 51.80 55.0 Not Reported 10.96 SE 6.49 E 16.33 S No 0.000 No Precipitation 05/15/2019 02:18 AM 05/15/2019 02:32 AM 0.000 0.012 0.051 0.051 0.051 Not Reported Not Reported
05/15/2019 01:27 PM 60.08 50.72 42.44 64.58 51.80 50.0 Not Reported 11.41 SE 15.21 SE 14.32 SE No 0.000 No Precipitation 05/15/2019 02:18 AM 05/15/2019 02:32 AM 0.000 0.004 0.051 0.051 0.051 Not Reported Not Reported
05/15/2019 01:42 PM 61.70 51.62 42.44 64.58 51.80 51.0 Not Reported 13.65 S 8.28 SE 13.20 S No 0.000 No Precipitation 05/15/2019 02:18 AM 05/15/2019 02:32 AM 0.000 0.000 0.047 0.051 0.051 Not Reported Not Reported
05/15/2019 01:58 PM 60.62 50.90 42.08 64.58 51.80 50.0 Not Reported 10.51 SE 7.38 SE 15.66 S No 0.000 No Precipitation 05/15/2019 02:18 AM 05/15/2019 02:32 AM 0.000 0.000 0.047 0.051 0.051 Not Reported Not Reported
05/15/2019 02:12 PM 61.34 51.26 41.90 64.58 51.80 50.0 Not Reported 12.30 SE 9.17 SE 13.20 S No 0.000 No Precipitation 05/15/2019 02:18 AM 05/15/2019 02:32 AM 0.000 0.000 0.043 0.051 0.051 Not Reported Not Reported
05/15/2019 02:28 PM 61.34 51.44 42.44 64.58 51.80 49.0 Not Reported 9.84 SE 11.18 SE 15.66 SE No 0.000 No Precipitation 05/15/2019 02:18 AM 05/15/2019 02:32 AM 0.000 0.000 0.043 0.051 0.051 Not Reported Not Reported
05/15/2019 02:44 PM 62.24 51.80 42.44 64.58 51.80 49.0 Not Reported 12.30 S 5.82 S 17.90 SE No 0.000 No Precipitation 05/15/2019 02:18 AM 05/15/2019 02:32 AM 0.000 0.000 0.043 0.051 0.051 Not Reported Not Reported
05/15/2019 02:58 PM 62.42 51.62 41.54 64.58 51.80 46.0 Not Reported 9.84 S 9.84 S 15.21 SE No 0.000 No Precipitation 05/15/2019 02:18 AM 05/15/2019 02:32 AM 0.000 0.000 0.043 0.051 0.051 Not Reported Not Reported
05/15/2019 03:12 PM 62.78 52.70 43.52 64.58 51.80 49.0 Not Reported 6.93 SE 12.53 SE 11.41 SE No 0.000 No Precipitation 05/15/2019 02:18 AM 05/15/2019 02:32 AM 0.000 0.000 0.043 0.051 0.051 Not Reported Not Reported
05/15/2019 03:28 PM 62.78 52.52 43.52 64.58 51.80 49.0 Not Reported 8.28 SE 8.50 SE 15.66 SE No 0.000 No Precipitation 05/15/2019 02:18 AM 05/15/2019 02:32 AM 0.000 0.000 0.039 0.051 0.051 Not Reported Not Reported
05/15/2019 03:42 PM 62.42 51.98 42.62 64.58 51.80 50.0 Not Reported 6.26 SE 6.04 E 13.87 S No 0.000 No Precipitation 05/15/2019 02:18 AM 05/15/2019 02:32 AM 0.000 0.000 0.028 0.051 0.051 Not Reported Not Reported
05/15/2019 03:57 PM 62.24 51.80 41.72 64.58 51.80 47.0 Not Reported 11.41 S 8.72 SW 12.08 S No 0.000 No Precipitation 05/15/2019 02:18 AM 05/15/2019 02:32 AM 0.000 0.000 0.020 0.051 0.051 Not Reported Not Reported
05/15/2019 04:12 PM 63.86 52.16 41.36 64.58 51.80 43.0 Not Reported 11.41 S 13.87 S 17.22 S No 0.000 No Precipitation 05/15/2019 02:18 AM 05/15/2019 02:32 AM 0.000 0.000 0.012 0.051 0.051 Not Reported Not Reported
05/15/2019 04:27 PM 63.50 51.98 41.54 64.58 51.80 44.0 Not Reported 7.83 SW 14.09 SE 13.87 S No 0.000 No Precipitation 05/15/2019 02:18 AM 05/15/2019 02:32 AM 0.000 0.000 0.000 0.051 0.051 Not Reported Not Reported
05/15/2019 04:42 PM 63.50 52.52 42.98 64.58 51.80 46.0 Not Reported 8.05 SE 8.72 SE 10.51 SE No 0.000 No Precipitation 05/15/2019 02:18 AM 05/15/2019 02:32 AM 0.000 0.000 0.000 0.051 0.051 Not Reported Not Reported
05/15/2019 04:57 PM 63.50 52.16 41.72 64.58 51.80 44.0 Not Reported 13.20 SE 12.97 S 11.86 S No 0.000 No Precipitation 05/15/2019 02:18 AM 05/15/2019 02:32 AM 0.000 0.000 0.000 0.051 0.051 Not Reported Not Reported
05/15/2019 05:12 PM 63.86 52.70 42.62 64.58 51.80 45.0 Not Reported 9.62 SE 7.61 S 16.11 S No 0.000 No Precipitation 05/15/2019 02:18 AM 05/15/2019 02:32 AM 0.000 0.000 0.000 0.051 0.051 Not Reported Not Reported
05/15/2019 05:27 PM 66.02 53.24 42.08 64.58 51.80 41.0 Not Reported 9.62 S 9.84 S 10.51 S No 0.000 No Precipitation 05/15/2019 02:18 AM 05/15/2019 02:32 AM 0.000 0.000 0.000 0.051 0.051 Not Reported Not Reported
05/15/2019 05:42 PM 64.58 52.70 42.44 64.58 51.80 44.0 Not Reported 10.96 S 9.84 S 18.12 S No 0.000 No Precipitation 05/15/2019 02:18 AM 05/15/2019 02:32 AM 0.000 0.000 0.000 0.051 0.051 Not Reported Not Reported
05/15/2019 05:57 PM 64.76 53.06 42.08 64.58 51.80 44.0 Not Reported 8.95 S 6.26 S 15.88 S No 0.000 No Precipitation 05/15/2019 02:18 AM 05/15/2019 02:32 AM 0.000 0.000 0.000 0.051 0.051 Not Reported Not Reported
05/15/2019 06:12 PM 66.02 53.24 42.08 64.58 51.80 41.0 Not Reported 9.84 S 13.87 S 13.20 SW No 0.000 No Precipitation 05/15/2019 02:18 AM 05/15/2019 02:32 AM 0.000 0.000 0.000 0.051 0.051 Not Reported Not Reported
05/15/2019 06:27 PM 64.94 53.06 42.98 64.58 51.80 44.0 Not Reported 15.66 S 12.53 S 16.55 S No 0.000 No Precipitation 05/15/2019 02:18 AM 05/15/2019 02:32 AM 0.000 0.000 0.000 0.051 0.051 Not Reported Not Reported
05/15/2019 06:43 PM 62.96 51.98 42.08 64.58 51.80 46.0 Not Reported 10.29 S 8.28 S 12.75 SE No 0.000 No Precipitation 05/15/2019 02:18 AM 05/15/2019 02:32 AM 0.000 0.000 0.000 0.051 0.051 Not Reported Not Reported
05/15/2019 06:58 PM 62.78 51.98 42.08 64.58 51.80 46.0 Not Reported 6.93 S 9.40 S 14.76 S No 0.000 No Precipitation 05/15/2019 02:18 AM 05/15/2019 02:32 AM 0.000 0.000 0.000 0.051 0.051 Not Reported Not Reported
05/15/2019 07:12 PM 61.70 51.80 42.80 64.58 51.80 49.0 Not Reported 8.05 S 8.05 S 13.42 S No 0.000 No Precipitation 05/15/2019 02:18 AM 05/15/2019 02:32 AM 0.000 0.000 0.000 0.051 0.051 Not Reported Not Reported
05/15/2019 07:27 PM 62.96 52.52 43.52 64.58 51.80 48.0 Not Reported 10.29 S 11.18 S 11.86 S No 0.000 No Precipitation 05/15/2019 02:18 AM 05/15/2019 02:32 AM 0.000 0.000 0.000 0.051 0.051 Not Reported Not Reported
05/15/2019 07:42 PM 60.98 51.62 43.16 64.58 51.80 52.0 Not Reported 7.83 SW 5.82 S 11.63 S No 0.000 No Precipitation 05/15/2019 02:18 AM 05/15/2019 02:32 AM 0.000 0.000 0.000 0.047 0.051 Not Reported Not Reported
05/15/2019 07:57 PM 60.80 51.62 43.34 64.58 51.80 52.0 Not Reported 5.59 SW 5.37 S 9.84 S No 0.000 No Precipitation 05/15/2019 02:18 AM 05/15/2019 02:32 AM 0.000 0.000 0.000 0.047 0.051 Not Reported Not Reported
05/15/2019 08:13 PM 60.26 51.08 42.80 64.58 51.80 53.0 Not Reported 7.61 S 10.74 S 10.51 S No 0.000 No Precipitation 05/15/2019 02:18 AM 05/15/2019 02:32 AM 0.000 0.000 0.000 0.043 0.051 Not Reported Not Reported
05/15/2019 08:27 PM 59.72 50.54 42.26 64.58 51.80 52.0 Not Reported 4.92 S 12.08 S 10.74 S No 0.000 No Precipitation 05/15/2019 02:18 AM 05/15/2019 02:32 AM 0.000 0.000 0.000 0.043 0.051 Not Reported Not Reported
05/15/2019 08:42 PM 59.18 50.36 42.08 64.58 51.80 53.0 Not Reported 8.50 S 5.37 S 8.95 S No 0.000 No Precipitation 05/15/2019 02:18 AM 05/15/2019 02:32 AM 0.000 0.000 0.000 0.043 0.051 Not Reported Not Reported
05/15/2019 08:57 PM 58.82 50.18 41.72 64.58 51.80 53.0 Not Reported 10.51 S 6.93 S 11.18 SW No 0.000 No Precipitation 05/15/2019 02:18 AM 05/15/2019 02:32 AM 0.000 0.000 0.000 0.043 0.051 Not Reported Not Reported
05/15/2019 09:12 PM 58.28 49.82 41.90 64.58 51.80 54.0 Not Reported 3.80 S 3.13 S 9.40 SW No 0.000 No Precipitation 05/15/2019 02:18 AM 05/15/2019 02:32 AM 0.000 0.000 0.000 0.043 0.051 Not Reported Not Reported
05/15/2019 09:27 PM 58.46 49.64 41.00 64.58 51.80 52.0 Not Reported 6.26 S 6.49 SE 14.09 S No 0.000 No Precipitation 05/15/2019 02:18 AM 05/15/2019 02:32 AM 0.000 0.000 0.000 0.039 0.051 Not Reported Not Reported
05/15/2019 09:43 PM 58.64 49.64 41.00 64.58 51.80 51.0 Not Reported 7.38 S 5.82 S 15.43 S No 0.000 No Precipitation 05/15/2019 02:18 AM 05/15/2019 02:32 AM 0.000 0.000 0.000 0.028 0.051 Not Reported Not Reported
05/15/2019 09:57 PM 59.00 49.64 41.00 64.58 51.80 51.0 Not Reported 11.86 S 25.95 S 12.97 S No 0.000 No Precipitation 05/15/2019 02:18 AM 05/15/2019 02:32 AM 0.000 0.000 0.000 0.020 0.051 Not Reported Not Reported
05/15/2019 10:12 PM 58.64 49.64 41.36 64.58 51.80 52.0 Not Reported 13.87 S 14.32 SE 19.24 SE No 0.000 No Precipitation 05/15/2019 02:18 AM 05/15/2019 02:32 AM 0.000 0.000 0.000 0.016 0.051 Not Reported Not Reported
05/15/2019 10:27 PM 58.46 49.46 40.82 64.58 51.80 51.0 Not Reported 12.97 S 16.11 S 19.01 S No 0.000 No Precipitation 05/15/2019 02:18 AM 05/15/2019 02:32 AM 0.000 0.000 0.000 0.000 0.051 Not Reported Not Reported
05/15/2019 10:42 PM 57.20 49.46 42.08 64.58 51.80 56.0 Not Reported 9.84 S 10.74 S 18.79 SE No 0.000 No Precipitation 05/15/2019 02:18 AM 05/15/2019 02:32 AM 0.000 0.000 0.000 0.000 0.051 Not Reported Not Reported
05/15/2019 10:57 PM 57.02 48.92 41.00 64.58 51.80 55.0 Not Reported 12.08 S 13.42 SE 12.08 S No 0.000 No Precipitation 05/15/2019 02:18 AM 05/15/2019 02:32 AM 0.000 0.000 0.000 0.000 0.051 Not Reported Not Reported
05/15/2019 11:12 PM 55.76 48.56 41.54 64.58 51.80 58.0 Not Reported 13.87 S 8.95 S 20.80 S No 0.000 No Precipitation 05/15/2019 02:18 AM 05/15/2019 02:32 AM 0.000 0.000 0.000 0.000 0.051 Not Reported Not Reported
05/15/2019 11:27 PM 55.76 48.20 40.82 64.58 51.80 57.0 Not Reported 13.87 S 7.83 S 17.00 S No 0.000 No Precipitation 05/15/2019 02:18 AM 05/15/2019 02:32 AM 0.000 0.000 0.000 0.000 0.051 Not Reported Not Reported
05/15/2019 11:42 PM 55.22 48.20 41.18 64.58 51.80 59.0 Not Reported 12.08 SE 9.17 S 15.43 S No 0.000 No Precipitation 05/15/2019 02:18 AM 05/15/2019 02:32 AM 0.000 0.000 0.000 0.000 0.051 Not Reported Not Reported
05/15/2019 11:57 PM 54.14 48.02 41.90 64.58 51.80 63.0 Not Reported 5.82 S 4.03 S 15.66 SE No 0.000 No Precipitation 05/15/2019 02:18 AM 05/15/2019 02:32 AM 0.000 0.000 0.000 0.000 0.051 Not Reported Not Reported